sensor_id;sensor_type;location;lat;lon;timestamp;pressure;altitude;pressure_sealevel;temperature;humidity
75039;BME280;63609;49.992;14.512;2023-05-10T00:03:32;97654.56;;;7.30;52.79
75039;BME280;63609;49.992;14.512;2023-05-10T00:06:01;97657.06;;;7.31;52.22
75039;BME280;63609;49.992;14.512;2023-05-10T00:08:30;97649.66;;;7.54;51.95
75039;BME280;63609;49.992;14.512;2023-05-10T00:10:58;97649.31;;;7.67;51.34
75039;BME280;63609;49.992;14.512;2023-05-10T00:13:27;97649.19;;;7.69;51.29
75039;BME280;63609;49.992;14.512;2023-05-10T00:15:56;97640.53;;;7.47;52.26
75039;BME280;63609;49.992;14.512;2023-05-10T00:18:23;97644.34;;;7.35;52.60
75039;BME280;63609;49.992;14.512;2023-05-10T00:20:52;97642.50;;;7.45;52.30
75039;BME280;63609;49.992;14.512;2023-05-10T00:23:21;97641.84;;;7.33;52.80
75039;BME280;63609;49.992;14.512;2023-05-10T00:25:51;97650.63;;;7.34;52.67
75039;BME280;63609;49.992;14.512;2023-05-10T00:28:22;97649.38;;;7.28;53.16
75039;BME280;63609;49.992;14.512;2023-05-10T00:31:05;97640.16;;;7.23;53.25
75039;BME280;63609;49.992;14.512;2023-05-10T00:33:34;97637.91;;;7.09;53.28
75039;BME280;63609;49.992;14.512;2023-05-10T00:36:02;97630.47;;;7.12;53.28
75039;BME280;63609;49.992;14.512;2023-05-10T00:38:30;97630.06;;;7.17;52.88
75039;BME280;63609;49.992;14.512;2023-05-10T00:40:59;97625.91;;;7.33;52.27
75039;BME280;63609;49.992;14.512;2023-05-10T00:43:30;97636.25;;;7.37;52.45
75039;BME280;63609;49.992;14.512;2023-05-10T00:46:04;97636.06;;;7.19;52.66
75039;BME280;63609;49.992;14.512;2023-05-10T00:48:34;97636.22;;;7.17;53.11
75039;BME280;63609;49.992;14.512;2023-05-10T00:51:06;97632.63;;;7.28;52.50
75039;BME280;63609;49.992;14.512;2023-05-10T00:53:35;97628.41;;;7.25;52.82
75039;BME280;63609;49.992;14.512;2023-05-10T00:56:04;97632.16;;;7.42;53.03
75039;BME280;63609;49.992;14.512;2023-05-10T00:58:34;97631.06;;;7.35;52.06
75039;BME280;63609;49.992;14.512;2023-05-10T01:01:05;97628.41;;;7.06;53.15
75039;BME280;63609;49.992;14.512;2023-05-10T01:03:36;97626.28;;;7.10;52.28
75039;BME280;63609;49.992;14.512;2023-05-10T01:06:06;97629.63;;;6.83;52.40
75039;BME280;63609;49.992;14.512;2023-05-10T01:08:40;97616.38;;;6.73;53.17
75039;BME280;63609;49.992;14.512;2023-05-10T01:11:08;97626.09;;;6.44;53.47
75039;BME280;63609;49.992;14.512;2023-05-10T01:13:51;97620.78;;;6.53;53.90
75039;BME280;63609;49.992;14.512;2023-05-10T01:16:24;97616.59;;;6.31;54.22
75039;BME280;63609;49.992;14.512;2023-05-10T01:18:58;97618.34;;;6.21;53.86
75039;BME280;63609;49.992;14.512;2023-05-10T01:21:33;97616.59;;;6.31;54.35
75039;BME280;63609;49.992;14.512;2023-05-10T01:35:38;97610.25;;;5.83;56.44
75039;BME280;63609;49.992;14.512;2023-05-10T01:38:18;97612.47;;;6.08;56.39
75039;BME280;63609;49.992;14.512;2023-05-10T01:44:29;97613.25;;;6.49;54.76
75039;BME280;63609;49.992;14.512;2023-05-10T01:46:37;97607.31;;;6.16;56.03
75039;BME280;63609;49.992;14.512;2023-05-10T01:49:10;97601.59;;;6.11;56.03
75039;BME280;63609;49.992;14.512;2023-05-10T01:51:53;97602.91;;;6.26;55.59
75039;BME280;63609;49.992;14.512;2023-05-10T01:54:27;97601.22;;;6.25;55.91
75039;BME280;63609;49.992;14.512;2023-05-10T01:57:01;97609.03;;;6.27;55.61
75039;BME280;63609;49.992;14.512;2023-05-10T01:59:37;97602.44;;;6.21;55.29
75039;BME280;63609;49.992;14.512;2023-05-10T02:02:10;97609.25;;;6.04;56.11
75039;BME280;63609;49.992;14.512;2023-05-10T02:04:40;97608.88;;;5.88;57.14
75039;BME280;63609;49.992;14.512;2023-05-10T02:07:10;97601.16;;;6.06;56.15
75039;BME280;63609;49.992;14.512;2023-05-10T02:09:40;97598.16;;;5.90;57.12
75039;BME280;63609;49.992;14.512;2023-05-10T02:12:13;97604.28;;;5.90;56.77
75039;BME280;63609;49.992;14.512;2023-05-10T02:14:42;97606.84;;;5.92;56.60
75039;BME280;63609;49.992;14.512;2023-05-10T02:17:12;97604.81;;;5.84;56.79
75039;BME280;63609;49.992;14.512;2023-05-10T02:19:41;97608.25;;;5.96;56.38
75039;BME280;63609;49.992;14.512;2023-05-10T02:22:12;97606.09;;;5.90;56.90
75039;BME280;63609;49.992;14.512;2023-05-10T02:24:42;97606.38;;;5.87;56.99
75039;BME280;63609;49.992;14.512;2023-05-10T02:27:12;97601.16;;;5.75;57.65
75039;BME280;63609;49.992;14.512;2023-05-10T02:29:42;97609.97;;;5.76;57.12
75039;BME280;63609;49.992;14.512;2023-05-10T02:32:12;97606.28;;;5.98;56.82
75039;BME280;63609;49.992;14.512;2023-05-10T02:34:40;97603.38;;;6.01;56.21
75039;BME280;63609;49.992;14.512;2023-05-10T02:37:09;97603.13;;;6.14;55.72
75039;BME280;63609;49.992;14.512;2023-05-10T02:39:38;97593.97;;;5.87;56.28
75039;BME280;63609;49.992;14.512;2023-05-10T02:42:18;97598.16;;;5.90;55.70
75039;BME280;63609;49.992;14.512;2023-05-10T02:44:51;97586.28;;;5.84;56.40
75039;BME280;63609;49.992;14.512;2023-05-10T02:47:20;97592.13;;;5.57;56.98
75039;BME280;63609;49.992;14.512;2023-05-10T02:49:48;97590.03;;;5.82;56.73
75039;BME280;63609;49.992;14.512;2023-05-10T02:52:24;97588.66;;;5.87;56.36
75039;BME280;63609;49.992;14.512;2023-05-10T02:55:00;97594.31;;;5.73;56.21
75039;BME280;63609;49.992;14.512;2023-05-10T02:57:35;97587.53;;;5.80;56.04
75039;BME280;63609;49.992;14.512;2023-05-10T03:00:11;97599.38;;;5.86;56.61
75039;BME280;63609;49.992;14.512;2023-05-10T03:02:40;97594.84;;;5.97;55.49
75039;BME280;63609;49.992;14.512;2023-05-10T03:05:09;97593.88;;;5.98;55.02
75039;BME280;63609;49.992;14.512;2023-05-10T03:07:37;97595.56;;;5.99;55.32
75039;BME280;63609;49.992;14.512;2023-05-10T03:10:05;97595.75;;;5.77;55.56
75039;BME280;63609;49.992;14.512;2023-05-10T03:15:47;97586.53;;;5.71;56.44
75039;BME280;63609;49.992;14.512;2023-05-10T03:18:28;97581.56;;;5.36;57.93
75039;BME280;63609;49.992;14.512;2023-05-10T03:21:07;97585.63;;;5.40;57.23
75039;BME280;63609;49.992;14.512;2023-05-10T03:23:43;97580.06;;;5.43;58.20
75039;BME280;63609;49.992;14.512;2023-05-10T03:26:26;97578.03;;;5.57;57.44
75039;BME280;63609;49.992;14.512;2023-05-10T03:29:11;97576.63;;;5.53;57.72
75039;BME280;63609;49.992;14.512;2023-05-10T03:31:41;97585.28;;;5.55;57.78
75039;BME280;63609;49.992;14.512;2023-05-10T03:34:09;97592.78;;;5.70;57.31
75039;BME280;63609;49.992;14.512;2023-05-10T03:36:38;97595.59;;;5.78;57.43
75039;BME280;63609;49.992;14.512;2023-05-10T03:39:06;97594.00;;;5.66;57.97
75039;BME280;63609;49.992;14.512;2023-05-10T03:41:34;97593.63;;;5.08;58.32
75039;BME280;63609;49.992;14.512;2023-05-10T03:44:05;97600.97;;;5.46;56.40
75039;BME280;63609;49.992;14.512;2023-05-10T03:46:34;97590.00;;;5.51;56.09
75039;BME280;63609;49.992;14.512;2023-05-10T03:49:08;97596.78;;;5.44;56.42
75039;BME280;63609;49.992;14.512;2023-05-10T03:51:36;97607.91;;;5.59;56.15
75039;BME280;63609;49.992;14.512;2023-05-10T03:54:04;97603.81;;;5.55;55.85
75039;BME280;63609;49.992;14.512;2023-05-10T03:56:33;97607.06;;;5.37;57.57
75039;BME280;63609;49.992;14.512;2023-05-10T03:59:02;97608.56;;;5.30;57.89
75039;BME280;63609;49.992;14.512;2023-05-10T04:01:46;97604.59;;;5.45;56.99
75039;BME280;63609;49.992;14.512;2023-05-10T04:04:14;97610.63;;;5.27;57.47
75039;BME280;63609;49.992;14.512;2023-05-10T04:06:44;97609.59;;;5.39;56.95
75039;BME280;63609;49.992;14.512;2023-05-10T04:09:13;97599.63;;;5.52;57.41
75039;BME280;63609;49.992;14.512;2023-05-10T04:11:45;97598.97;;;5.60;57.09
75039;BME280;63609;49.992;14.512;2023-05-10T04:14:13;97606.88;;;5.71;57.50
75039;BME280;63609;49.992;14.512;2023-05-10T04:16:44;97615.56;;;5.83;57.22
75039;BME280;63609;49.992;14.512;2023-05-10T04:19:13;97597.00;;;5.83;58.23
75039;BME280;63609;49.992;14.512;2023-05-10T04:21:41;97606.44;;;5.96;58.05
75039;BME280;63609;49.992;14.512;2023-05-10T04:24:10;97596.13;;;6.03;57.82
75039;BME280;63609;49.992;14.512;2023-05-10T04:26:40;97596.97;;;6.13;57.17
75039;BME280;63609;49.992;14.512;2023-05-10T04:29:10;97592.38;;;6.05;58.20
75039;BME280;63609;49.992;14.512;2023-05-10T04:31:40;97605.81;;;6.23;57.69
75039;BME280;63609;49.992;14.512;2023-05-10T04:34:09;97604.59;;;6.47;57.15
75039;BME280;63609;49.992;14.512;2023-05-10T04:36:41;97599.44;;;6.55;57.44
75039;BME280;63609;49.992;14.512;2023-05-10T04:39:09;97593.31;;;6.54;56.95
75039;BME280;63609;49.992;14.512;2023-05-10T04:41:38;97595.28;;;6.71;57.09
75039;BME280;63609;49.992;14.512;2023-05-10T04:44:07;97600.03;;;6.87;56.81
75039;BME280;63609;49.992;14.512;2023-05-10T04:46:38;97584.81;;;6.99;56.21
75039;BME280;63609;49.992;14.512;2023-05-10T04:49:06;97581.16;;;7.10;56.67
75039;BME280;63609;49.992;14.512;2023-05-10T04:51:35;97589.28;;;7.27;55.90
75039;BME280;63609;49.992;14.512;2023-05-10T04:54:03;97593.81;;;7.64;55.35
75039;BME280;63609;49.992;14.512;2023-05-10T04:56:33;97593.34;;;7.88;54.81
75039;BME280;63609;49.992;14.512;2023-05-10T04:59:01;97589.16;;;8.13;54.23
75039;BME280;63609;49.992;14.512;2023-05-10T05:01:31;97589.41;;;7.92;54.82
75039;BME280;63609;49.992;14.512;2023-05-10T05:04:00;97589.66;;;7.99;55.29
75039;BME280;63609;49.992;14.512;2023-05-10T05:06:29;97589.19;;;8.31;54.49
75039;BME280;63609;49.992;14.512;2023-05-10T05:08:58;97587.16;;;8.24;55.01
75039;BME280;63609;49.992;14.512;2023-05-10T05:11:26;97594.75;;;8.37;54.41
75039;BME280;63609;49.992;14.512;2023-05-10T05:13:55;97597.63;;;8.26;55.39
75039;BME280;63609;49.992;14.512;2023-05-10T05:16:29;97574.84;;;8.69;53.96
75039;BME280;63609;49.992;14.512;2023-05-10T05:19:08;97594.06;;;8.80;53.96
75039;BME280;63609;49.992;14.512;2023-05-10T05:21:39;97589.19;;;9.11;53.55
75039;BME280;63609;49.992;14.512;2023-05-10T05:24:10;97579.38;;;9.30;52.60
75039;BME280;63609;49.992;14.512;2023-05-10T05:26:40;97586.16;;;9.24;52.89
75039;BME280;63609;49.992;14.512;2023-05-10T05:29:07;97595.94;;;9.67;52.85
75039;BME280;63609;49.992;14.512;2023-05-10T05:31:38;97593.22;;;9.59;52.42
75039;BME280;63609;49.992;14.512;2023-05-10T05:34:06;97583.50;;;9.76;52.19
75039;BME280;63609;49.992;14.512;2023-05-10T05:36:36;97578.41;;;10.17;51.88
75039;BME280;63609;49.992;14.512;2023-05-10T05:39:10;97584.34;;;10.02;52.27
75039;BME280;63609;49.992;14.512;2023-05-10T05:41:38;97585.66;;;10.40;51.81
75039;BME280;63609;49.992;14.512;2023-05-10T05:44:06;97582.75;;;9.92;51.94
75039;BME280;63609;49.992;14.512;2023-05-10T05:46:35;97593.16;;;10.37;49.77
75039;BME280;63609;49.992;14.512;2023-05-10T05:49:04;97596.47;;;10.39;49.13
75039;BME280;63609;49.992;14.512;2023-05-10T05:51:32;97587.25;;;10.75;49.08
75039;BME280;63609;49.992;14.512;2023-05-10T05:54:03;97591.16;;;10.39;49.36
75039;BME280;63609;49.992;14.512;2023-05-10T05:56:32;97592.78;;;10.82;50.27
75039;BME280;63609;49.992;14.512;2023-05-10T05:59:01;97582.16;;;11.15;49.94
75039;BME280;63609;49.992;14.512;2023-05-10T06:01:35;97596.00;;;11.43;47.99
75039;BME280;63609;49.992;14.512;2023-05-10T06:04:05;97598.38;;;10.55;50.16
75039;BME280;63609;49.992;14.512;2023-05-10T06:06:35;97606.13;;;10.90;50.24
75039;BME280;63609;49.992;14.512;2023-05-10T06:09:05;97606.28;;;10.81;49.25
75039;BME280;63609;49.992;14.512;2023-05-10T06:11:32;97596.16;;;11.41;48.27
75039;BME280;63609;49.992;14.512;2023-05-10T06:14:02;97602.16;;;11.59;46.93
75039;BME280;63609;49.992;14.512;2023-05-10T06:16:33;97607.25;;;12.02;46.46
75039;BME280;63609;49.992;14.512;2023-05-10T06:19:02;97610.94;;;12.17;46.46
75039;BME280;63609;49.992;14.512;2023-05-10T06:21:30;97605.91;;;12.14;46.31
75039;BME280;63609;49.992;14.512;2023-05-10T06:24:00;97595.81;;;12.32;44.74
75039;BME280;63609;49.992;14.512;2023-05-10T06:26:27;97608.84;;;12.43;45.35
75039;BME280;63609;49.992;14.512;2023-05-10T06:28:56;97603.22;;;12.06;46.25
75039;BME280;63609;49.992;14.512;2023-05-10T06:31:33;97594.03;;;12.08;47.13
75039;BME280;63609;49.992;14.512;2023-05-10T06:34:04;97600.56;;;12.53;44.67
75039;BME280;63609;49.992;14.512;2023-05-10T06:36:35;97602.84;;;12.64;44.73
75039;BME280;63609;49.992;14.512;2023-05-10T06:39:04;97601.38;;;13.15;44.32
75039;BME280;63609;49.992;14.512;2023-05-10T06:41:36;97606.94;;;12.83;44.19
75039;BME280;63609;49.992;14.512;2023-05-10T06:44:06;97599.69;;;13.37;43.39
75039;BME280;63609;49.992;14.512;2023-05-10T06:46:40;97597.19;;;13.36;43.11
75039;BME280;63609;49.992;14.512;2023-05-10T06:49:09;97608.06;;;13.42;43.35
75039;BME280;63609;49.992;14.512;2023-05-10T06:51:38;97599.56;;;12.85;44.33
75039;BME280;63609;49.992;14.512;2023-05-10T06:54:06;97594.75;;;12.49;45.67
75039;BME280;63609;49.992;14.512;2023-05-10T06:56:45;97594.16;;;12.62;45.00
75039;BME280;63609;49.992;14.512;2023-05-10T06:59:41;97607.59;;;12.85;45.40
75039;BME280;63609;49.992;14.512;2023-05-10T07:02:18;97609.22;;;12.63;45.86
75039;BME280;63609;49.992;14.512;2023-05-10T07:04:47;97592.72;;;13.51;41.68
75039;BME280;63609;49.992;14.512;2023-05-10T07:07:18;97603.38;;;12.90;45.88
75039;BME280;63609;49.992;14.512;2023-05-10T07:09:46;97593.31;;;13.38;44.26
75039;BME280;63609;49.992;14.512;2023-05-10T07:12:14;97594.94;;;14.44;42.11
75039;BME280;63609;49.992;14.512;2023-05-10T07:14:44;97588.22;;;15.27;39.36
75039;BME280;63609;49.992;14.512;2023-05-10T07:17:12;97589.38;;;14.82;40.56
75039;BME280;63609;49.992;14.512;2023-05-10T07:19:44;97586.00;;;14.73;40.61
75039;BME280;63609;49.992;14.512;2023-05-10T07:22:12;97593.53;;;14.48;42.13
75039;BME280;63609;49.992;14.512;2023-05-10T07:24:40;97589.56;;;15.16;40.67
75039;BME280;63609;49.992;14.512;2023-05-10T07:27:08;97595.19;;;15.43;40.20
75039;BME280;63609;49.992;14.512;2023-05-10T07:29:39;97601.94;;;14.96;40.79
75039;BME280;63609;49.992;14.512;2023-05-10T07:32:08;97602.78;;;15.88;38.84
75039;BME280;63609;49.992;14.512;2023-05-10T07:34:40;97595.69;;;15.53;41.23
75039;BME280;63609;49.992;14.512;2023-05-10T07:37:11;97597.19;;;15.34;38.93
75039;BME280;63609;49.992;14.512;2023-05-10T07:39:40;97598.19;;;15.82;38.37
75039;BME280;63609;49.992;14.512;2023-05-10T07:42:13;97592.59;;;15.06;39.21
75039;BME280;63609;49.992;14.512;2023-05-10T07:44:41;97580.63;;;15.58;41.56
75039;BME280;63609;49.992;14.512;2023-05-10T07:47:12;97591.09;;;15.25;40.57
75039;BME280;63609;49.992;14.512;2023-05-10T07:49:41;97601.66;;;15.27;40.98
75039;BME280;63609;49.992;14.512;2023-05-10T07:52:09;97595.03;;;15.72;39.77
75039;BME280;63609;49.992;14.512;2023-05-10T07:54:37;97596.03;;;15.22;40.12
75039;BME280;63609;49.992;14.512;2023-05-10T07:57:06;97601.09;;;14.95;40.26
75039;BME280;63609;49.992;14.512;2023-05-10T07:59:33;97601.13;;;15.59;41.21
75039;BME280;63609;49.992;14.512;2023-05-10T08:02:02;97587.34;;;15.69;40.22
75039;BME280;63609;49.992;14.512;2023-05-10T08:04:30;97595.50;;;16.04;38.15
75039;BME280;63609;49.992;14.512;2023-05-10T08:06:58;97590.69;;;15.50;38.79
75039;BME280;63609;49.992;14.512;2023-05-10T08:09:26;97595.81;;;15.02;40.21
75039;BME280;63609;49.992;14.512;2023-05-10T08:11:56;97595.38;;;15.90;38.55
75039;BME280;63609;49.992;14.512;2023-05-10T08:14:28;97591.97;;;16.44;37.56
75039;BME280;63609;49.992;14.512;2023-05-10T08:16:57;97582.75;;;15.91;37.96
75039;BME280;63609;49.992;14.512;2023-05-10T08:19:25;97587.69;;;16.15;37.17
75039;BME280;63609;49.992;14.512;2023-05-10T08:21:56;97589.47;;;16.90;35.74
75039;BME280;63609;49.992;14.512;2023-05-10T08:24:24;97598.16;;;15.76;38.73
75039;BME280;63609;49.992;14.512;2023-05-10T08:26:53;97587.88;;;17.16;35.77
75039;BME280;63609;49.992;14.512;2023-05-10T08:29:21;97594.91;;;16.08;39.08
75039;BME280;63609;49.992;14.512;2023-05-10T08:31:50;97596.59;;;16.63;37.62
75039;BME280;63609;49.992;14.512;2023-05-10T08:34:18;97592.06;;;17.91;36.21
75039;BME280;63609;49.992;14.512;2023-05-10T08:36:50;97588.97;;;17.41;35.11
75039;BME280;63609;49.992;14.512;2023-05-10T08:39:19;97588.16;;;17.80;34.27
75039;BME280;63609;49.992;14.512;2023-05-10T08:42:01;97603.59;;;16.92;36.82
75039;BME280;63609;49.992;14.512;2023-05-10T08:44:32;97596.81;;;17.23;37.13
75039;BME280;63609;49.992;14.512;2023-05-10T08:47:04;97600.22;;;16.77;37.41
75039;BME280;63609;49.992;14.512;2023-05-10T08:49:33;97592.28;;;17.43;35.63
75039;BME280;63609;49.992;14.512;2023-05-10T08:52:05;97596.19;;;17.14;34.40
75039;BME280;63609;49.992;14.512;2023-05-10T08:54:36;97604.19;;;16.81;36.77
75039;BME280;63609;49.992;14.512;2023-05-10T08:57:04;97598.16;;;16.79;36.21
75039;BME280;63609;49.992;14.512;2023-05-10T08:59:32;97593.59;;;16.80;36.71
75039;BME280;63609;49.992;14.512;2023-05-10T09:02:02;97600.09;;;17.05;35.42
75039;BME280;63609;49.992;14.512;2023-05-10T09:04:36;97597.22;;;17.13;37.85
75039;BME280;63609;49.992;14.512;2023-05-10T09:07:03;97598.84;;;17.01;38.10
75039;BME280;63609;49.992;14.512;2023-05-10T09:09:31;97596.41;;;17.26;34.82
75039;BME280;63609;49.992;14.512;2023-05-10T09:12:02;97592.88;;;18.11;33.42
75039;BME280;63609;49.992;14.512;2023-05-10T09:14:30;97590.59;;;18.15;36.85
75039;BME280;63609;49.992;14.512;2023-05-10T09:17:04;97602.28;;;17.56;35.00
75039;BME280;63609;49.992;14.512;2023-05-10T09:19:32;97595.34;;;17.27;35.71
75039;BME280;63609;49.992;14.512;2023-05-10T09:22:00;97594.84;;;18.62;32.35
75039;BME280;63609;49.992;14.512;2023-05-10T09:24:30;97604.22;;;19.11;34.02
75039;BME280;63609;49.992;14.512;2023-05-10T09:26:59;97597.91;;;19.49;32.20
75039;BME280;63609;49.992;14.512;2023-05-10T09:29:39;97584.88;;;18.63;32.47
75039;BME280;63609;49.992;14.512;2023-05-10T09:32:07;97597.56;;;18.56;33.93
75039;BME280;63609;49.992;14.512;2023-05-10T09:34:36;97590.44;;;18.74;34.58
75039;BME280;63609;49.992;14.512;2023-05-10T09:37:07;97586.53;;;19.40;31.78
75039;BME280;63609;49.992;14.512;2023-05-10T09:39:38;97574.66;;;19.41;31.29
75039;BME280;63609;49.992;14.512;2023-05-10T09:42:10;97591.16;;;18.95;33.88
75039;BME280;63609;49.992;14.512;2023-05-10T09:44:38;97588.38;;;18.70;32.81
75039;BME280;63609;49.992;14.512;2023-05-10T09:47:17;97587.38;;;18.58;32.20
75039;BME280;63609;49.992;14.512;2023-05-10T09:49:50;97601.88;;;19.15;33.34
75039;BME280;63609;49.992;14.512;2023-05-10T09:52:18;97596.09;;;19.43;32.29
75039;BME280;63609;49.992;14.512;2023-05-10T09:54:52;97593.78;;;20.76;31.30
75039;BME280;63609;49.992;14.512;2023-05-10T09:57:21;97589.69;;;21.33;29.41
75039;BME280;63609;49.992;14.512;2023-05-10T09:59:50;97597.03;;;20.66;31.50
75039;BME280;63609;49.992;14.512;2023-05-10T10:02:19;97595.69;;;19.39;34.00
75039;BME280;63609;49.992;14.512;2023-05-10T10:04:55;97596.69;;;19.45;32.95
75039;BME280;63609;49.992;14.512;2023-05-10T10:07:25;97604.59;;;19.78;33.94
75039;BME280;63609;49.992;14.512;2023-05-10T10:09:55;97604.91;;;18.42;33.49
75039;BME280;63609;49.992;14.512;2023-05-10T10:12:23;97600.09;;;19.65;33.20
75039;BME280;63609;49.992;14.512;2023-05-10T10:14:56;97596.03;;;19.18;33.90
75039;BME280;63609;49.992;14.512;2023-05-10T10:17:27;97592.59;;;18.97;32.23
75039;BME280;63609;49.992;14.512;2023-05-10T10:19:57;97595.66;;;20.93;28.79
75039;BME280;63609;49.992;14.512;2023-05-10T10:22:27;97586.47;;;21.24;28.13
75039;BME280;63609;49.992;14.512;2023-05-10T10:24:55;97593.00;;;22.12;28.30
75039;BME280;63609;49.992;14.512;2023-05-10T10:30:47;97594.38;;;20.23;31.41
75039;BME280;63609;49.992;14.512;2023-05-10T10:36:50;97590.75;;;21.97;28.92
75039;BME280;63609;49.992;14.512;2023-05-10T10:39:26;97588.13;;;21.26;29.07
75039;BME280;63609;49.992;14.512;2023-05-10T10:41:56;97581.13;;;22.65;27.00
75039;BME280;63609;49.992;14.512;2023-05-10T10:49:49;97584.72;;;21.83;29.78
75039;BME280;63609;49.992;14.512;2023-05-10T10:54:50;97582.59;;;22.56;28.14
75039;BME280;63609;49.992;14.512;2023-05-10T10:57:19;97576.81;;;23.21;27.04
75039;BME280;63609;49.992;14.512;2023-05-10T10:59:48;97571.63;;;23.81;24.63
75039;BME280;63609;49.992;14.512;2023-05-10T11:02:45;97567.13;;;22.85;26.81
75039;BME280;63609;49.992;14.512;2023-05-10T11:05:27;97574.69;;;23.23;26.95
75039;BME280;63609;49.992;14.512;2023-05-10T11:08:11;97572.09;;;22.24;28.67
75039;BME280;63609;49.992;14.512;2023-05-10T11:10:40;97561.19;;;22.24;28.74
75039;BME280;63609;49.992;14.512;2023-05-10T11:13:08;97561.78;;;22.26;29.17
75039;BME280;63609;49.992;14.512;2023-05-10T11:15:48;97574.09;;;20.44;28.87
75039;BME280;63609;49.992;14.512;2023-05-10T11:18:24;97566.09;;;20.55;32.83
75039;BME280;63609;49.992;14.512;2023-05-10T11:20:52;97568.66;;;22.05;28.46
75039;BME280;63609;49.992;14.512;2023-05-10T11:23:28;97564.34;;;22.44;27.01
75039;BME280;63609;49.992;14.512;2023-05-10T11:26:02;97566.28;;;22.32;27.94
75039;BME280;63609;49.992;14.512;2023-05-10T11:28:30;97568.28;;;22.37;26.84
75039;BME280;63609;49.992;14.512;2023-05-10T11:30:57;97561.44;;;22.11;26.89
75039;BME280;63609;49.992;14.512;2023-05-10T11:33:24;97551.78;;;21.92;27.76
75039;BME280;63609;49.992;14.512;2023-05-10T11:35:52;97562.75;;;22.20;27.74
75039;BME280;63609;49.992;14.512;2023-05-10T11:38:21;97564.03;;;22.81;26.34
75039;BME280;63609;49.992;14.512;2023-05-10T11:40:53;97566.41;;;22.26;27.25
75039;BME280;63609;49.992;14.512;2023-05-10T11:43:23;97563.56;;;22.09;26.84
75039;BME280;63609;49.992;14.512;2023-05-10T11:45:54;97560.03;;;21.85;30.17
75039;BME280;63609;49.992;14.512;2023-05-10T11:48:22;97570.34;;;20.45;28.37
75039;BME280;63609;49.992;14.512;2023-05-10T11:50:50;97568.75;;;20.92;31.07
75039;BME280;63609;49.992;14.512;2023-05-10T11:53:19;97571.75;;;20.84;31.40
75039;BME280;63609;49.992;14.512;2023-05-10T11:55:48;97572.91;;;22.01;28.27
75039;BME280;63609;49.992;14.512;2023-05-10T11:58:15;97568.19;;;22.20;28.29
75039;BME280;63609;49.992;14.512;2023-05-10T12:00:46;97564.19;;;21.46;28.83
75039;BME280;63609;49.992;14.512;2023-05-10T12:03:13;97581.19;;;20.45;30.51
75039;BME280;63609;49.992;14.512;2023-05-10T12:05:40;97578.75;;;20.18;30.96
75039;BME280;63609;49.992;14.512;2023-05-10T12:08:15;97582.38;;;20.85;30.57
75039;BME280;63609;49.992;14.512;2023-05-10T12:10:43;97561.59;;;21.09;30.84
75039;BME280;63609;49.992;14.512;2023-05-10T12:13:14;97573.75;;;19.47;33.01
75039;BME280;63609;49.992;14.512;2023-05-10T12:15:43;97578.72;;;19.57;33.51
75039;BME280;63609;49.992;14.512;2023-05-10T12:18:11;97581.13;;;19.65;33.82
75039;BME280;63609;49.992;14.512;2023-05-10T12:20:39;97585.09;;;20.12;32.13
75039;BME280;63609;49.992;14.512;2023-05-10T12:23:09;97578.13;;;19.48;32.75
75039;BME280;63609;49.992;14.512;2023-05-10T12:25:37;97590.00;;;19.79;34.64
75039;BME280;63609;49.992;14.512;2023-05-10T12:28:06;97588.75;;;20.61;31.39
75039;BME280;63609;49.992;14.512;2023-05-10T12:30:35;97584.75;;;20.27;33.82
75039;BME280;63609;49.992;14.512;2023-05-10T12:33:07;97592.28;;;19.25;36.15
75039;BME280;63609;49.992;14.512;2023-05-10T12:35:46;97587.19;;;18.59;35.97
75039;BME280;63609;49.992;14.512;2023-05-10T12:41:04;97588.50;;;18.30;37.36
75039;BME280;63609;49.992;14.512;2023-05-10T12:43:32;97587.94;;;18.73;36.16
75039;BME280;63609;49.992;14.512;2023-05-10T12:46:10;97590.38;;;18.36;36.35
75039;BME280;63609;49.992;14.512;2023-05-10T12:48:39;97589.75;;;18.34;36.43
75039;BME280;63609;49.992;14.512;2023-05-10T12:51:07;97598.56;;;19.13;36.31
75039;BME280;63609;49.992;14.512;2023-05-10T12:53:40;97589.91;;;19.35;34.40
75039;BME280;63609;49.992;14.512;2023-05-10T12:56:11;97595.94;;;18.99;33.87
75039;BME280;63609;49.992;14.512;2023-05-10T12:58:38;97584.16;;;19.75;34.50
75039;BME280;63609;49.992;14.512;2023-05-10T13:01:05;97593.03;;;20.32;31.71
75039;BME280;63609;49.992;14.512;2023-05-10T13:03:32;97594.94;;;20.50;33.28
75039;BME280;63609;49.992;14.512;2023-05-10T13:06:00;97581.59;;;20.30;30.69
75039;BME280;63609;49.992;14.512;2023-05-10T13:08:30;97583.41;;;19.93;34.47
75039;BME280;63609;49.992;14.512;2023-05-10T13:11:01;97586.47;;;19.15;35.40
75039;BME280;63609;49.992;14.512;2023-05-10T13:13:28;97584.25;;;19.37;37.35
75039;BME280;63609;49.992;14.512;2023-05-10T13:15:56;97584.75;;;18.83;36.19
75039;BME280;63609;49.992;14.512;2023-05-10T13:18:27;97585.91;;;20.13;34.38
75039;BME280;63609;49.992;14.512;2023-05-10T13:20:54;97585.34;;;20.29;34.19
75039;BME280;63609;49.992;14.512;2023-05-10T13:23:24;97585.78;;;20.26;32.98
75039;BME280;63609;49.992;14.512;2023-05-10T13:25:50;97590.06;;;20.58;31.71
75039;BME280;63609;49.992;14.512;2023-05-10T13:28:18;97588.00;;;20.72;32.29
75039;BME280;63609;49.992;14.512;2023-05-10T13:30:44;97578.66;;;20.50;31.06
75039;BME280;63609;49.992;14.512;2023-05-10T13:33:11;97580.25;;;19.96;34.68
75039;BME280;63609;49.992;14.512;2023-05-10T13:35:39;97578.78;;;20.37;31.48
75039;BME280;63609;49.992;14.512;2023-05-10T13:38:06;97577.50;;;19.78;34.68
75039;BME280;63609;49.992;14.512;2023-05-10T13:40:35;97576.44;;;20.40;33.64
75039;BME280;63609;49.992;14.512;2023-05-10T13:43:02;97580.22;;;19.78;34.18
75039;BME280;63609;49.992;14.512;2023-05-10T13:45:32;97577.22;;;18.98;34.41
75039;BME280;63609;49.992;14.512;2023-05-10T13:47:59;97576.84;;;19.26;34.83
75039;BME280;63609;49.992;14.512;2023-05-10T13:50:26;97583.66;;;18.97;35.71